Terminal Aerodrome Forecast
Issued by NWS Sterling, VA

Current Version | Previous Version | Graphics & Text | Print | Product List | Glossary On
Versions: 1 2 3 4 5 6 7 8 9 10 11 12 13 14 15 16 17 18 19
000
FTUS41 KLWX 202340
TAFMRB
TAF
KMRB 202340Z 2100/2124 16009KT P6SM SCT250
     FM210600 20005KT P6SM SCT250
     FM211500 21011G19KT P6SM SCT070 BKN200
     FM212300 32008KT P6SM BKN050=

USA.gov is the U.S. government's official web portal to all federal, state and local government web resources and services.